Forside
METAR-TAF:

METAR-TAF

Lufthavne :

Ufa, Rusland

Breddekreds: 54-43-48N, længdekreds: 055-55-48E, højde: 137 m

Aktuelle vejr

Denne rapport blev lavet for 12 minutter siden, kl. 00:00 UTC
Vind stille
Temperatur 18°C
Fugtighed 83%
Tryk 1012 hPa
Sigt 10 km eller mere
ingen skyer under 1500m og ingen cumulonimbus

METAR: UWUU 170000Z 00000MPS CAVOK 18/15 Q1012 R14R/0///60 NOSIG RMK QFE749/0998

Tid: 05:12 (00:12 UTC)

Vejrudsigter

Denne rapport blev lavet for 1 time og 14 minutter siden, kl. 22:58 UTC
Foreløbig gælder fra 17 på 00 UTC til 17 på 24 UTC
Vind 6 kt fra sydøst med vindstød på up til 16 kt
Sigt 10 km eller mere
Brudte skyer i en højde af 4000 ft
Midlertidig
fra 17 på 00 UTC til 17 på 03 UTC
Vind 2 kt fra varierende retninger
Sigt: 3100 m
dis
Midlertidig
fra 17 på 12 UTC til 17 på 24 UTC
Sigt: 3100 m
Brudte skyer i en højde af 1100 ft, Cumulonimbus.
let regnbyger

TAF: UWUU 162258Z 1700/1724 13003G08MPS 9999 BKN040 TEMPO 1700/1703 VRB01MPS 3100 BR TEMPO 1712/1724 3100 -SHRA BKN011CB

Vejrobservationer og prognoser fra mere end 4000 lufthavne (METAR og TAF).

De gule og røde prikker repræsenterer de meteorologiske stationer.

Flyt musen over at se navnet på stationen.

Så klik over at se vejr observationer og prognoser.

At skifte det kort: Klik på de grønne knapper med et sort kors for at zoome ind; på den grønne knap med en bindestreg for at zoome ud; eller på de grønne pile for tilstødende kort.


METAR-TAF: